createdAt,value
2023-03-20T00:00:53.324Z,12.80
2023-03-20T00:04:54.543Z,12.90
2023-03-20T00:08:56.954Z,13.00
2023-03-20T00:12:59.623Z,13.00
2023-03-20T00:17:01.378Z,13.10
2023-03-20T00:21:02.530Z,12.90
2023-03-20T00:25:04.453Z,13.00
2023-03-20T00:29:07.248Z,12.90
2023-03-20T00:33:10.141Z,12.90
2023-03-20T00:37:12.110Z,13.00
2023-03-20T00:41:23.088Z,12.90
2023-03-20T00:45:25.152Z,12.90
2023-03-20T00:49:32.422Z,12.90
2023-03-20T00:53:33.558Z,12.90
2023-03-20T00:57:44.007Z,12.80
2023-03-20T01:01:46.077Z,12.80
2023-03-20T01:05:48.921Z,12.80
2023-03-20T01:09:50.409Z,12.80
2023-03-20T01:13:51.761Z,12.70
2023-03-20T01:17:52.938Z,12.70
2023-03-20T01:21:54.087Z,12.70
2023-03-20T01:25:55.342Z,12.60
2023-03-20T01:29:56.435Z,12.70
2023-03-20T01:33:57.627Z,12.70
2023-03-20T01:37:58.792Z,12.70
2023-03-20T01:42:01.736Z,12.70
2023-03-20T01:46:12.751Z,12.80
2023-03-20T01:50:26.497Z,12.70
2023-03-20T01:54:31.146Z,12.80
2023-03-20T01:58:36.586Z,12.70
2023-03-20T02:02:39.658Z,12.70
2023-03-20T02:06:41.403Z,12.70
2023-03-20T02:10:45.506Z,12.60
2023-03-20T02:14:47.879Z,12.60
2023-03-20T02:18:51.544Z,12.60
2023-03-20T02:22:56.545Z,12.50
2023-03-20T02:27:24.638Z,12.50
2023-03-20T02:31:32.793Z,12.40
2023-03-20T02:35:57.383Z,12.30
2023-03-20T02:40:08.617Z,12.40
2023-03-20T02:44:22.998Z,12.40
2023-03-20T02:48:43.259Z,12.30
2023-03-20T02:53:05.527Z,12.40
2023-03-20T02:57:10.487Z,12.40
2023-03-20T03:01:21.415Z,12.40
2023-03-20T03:05:26.344Z,12.40
2023-03-20T03:09:36.803Z,12.40
2023-03-20T03:13:47.205Z,12.40
2023-03-20T03:17:49.173Z,12.40
2023-03-20T03:21:51.042Z,12.40
2023-03-20T03:25:54.505Z,12.40
2023-03-20T03:29:59.181Z,12.30
2023-03-20T03:34:00.952Z,12.40
2023-03-20T03:38:21.290Z,12.30
2023-03-20T03:42:28.302Z,12.50
2023-03-20T03:46:45.489Z,12.50
2023-03-20T03:50:50.661Z,12.50
2023-03-20T03:54:55.622Z,12.50
2023-03-20T03:59:00.489Z,12.50
2023-03-20T04:03:04.177Z,12.50
2023-03-20T04:07:05.339Z,12.40
2023-03-20T04:11:08.391Z,12.50
2023-03-20T04:15:11.484Z,12.40
2023-03-20T04:19:13.117Z,12.40
2023-03-20T04:23:14.606Z,12.50
2023-03-20T04:27:16.503Z,12.40
2023-03-20T04:31:18.205Z,12.50
2023-03-20T04:35:19.301Z,12.40
2023-03-20T04:39:20.664Z,12.50
2023-03-20T04:43:21.817Z,12.40
2023-03-20T04:47:22.983Z,12.40
2023-03-20T04:51:24.121Z,12.50
2023-03-20T04:55:25.624Z,12.50
2023-03-20T04:59:26.897Z,12.60
2023-03-20T05:03:27.959Z,12.40
2023-03-20T05:07:29.118Z,12.50
2023-03-20T05:11:30.446Z,12.50
2023-03-20T05:15:31.806Z,12.50
2023-03-20T05:19:32.966Z,12.50
2023-03-20T05:23:34.125Z,12.50
2023-03-20T05:27:35.187Z,12.40
2023-03-20T05:31:36.430Z,12.30
2023-03-20T05:35:37.872Z,12.50
2023-03-20T05:39:39.262Z,12.40
2023-03-20T05:43:40.412Z,12.40
2023-03-20T05:47:41.560Z,12.50
2023-03-20T05:51:43.567Z,12.60
2023-03-20T05:55:44.864Z,12.50
2023-03-20T05:59:46.015Z,12.50
2023-03-20T06:03:48.119Z,12.60
2023-03-20T06:07:49.250Z,12.50
2023-03-20T06:11:50.424Z,12.50
2023-03-20T06:15:51.822Z,12.60
2023-03-20T06:19:52.972Z,12.60
2023-03-20T06:23:54.428Z,12.60
2023-03-20T06:27:55.856Z,12.70
2023-03-20T06:31:57.121Z,12.80
2023-03-20T06:35:58.374Z,12.70
2023-03-20T06:39:59.596Z,12.80
2023-03-20T06:44:00.901Z,12.90
2023-03-20T06:48:07.667Z,12.90
2023-03-20T06:52:15.976Z,12.80
2023-03-20T06:56:17.716Z,12.80
2023-03-20T07:00:21.107Z,12.80
2023-03-20T07:04:22.369Z,12.80
2023-03-20T07:08:24.068Z,12.80
2023-03-20T07:12:27.299Z,12.80
2023-03-20T07:16:28.627Z,12.80
2023-03-20T07:20:29.898Z,12.80
2023-03-20T07:24:32.053Z,12.90
2023-03-20T07:28:33.394Z,13.00
2023-03-20T07:32:37.205Z,13.20
2023-03-20T07:36:37.601Z,13.40
2023-03-20T07:40:38.784Z,13.50
2023-03-20T07:44:40.214Z,13.60
2023-03-20T07:48:41.594Z,13.50
2023-03-20T07:52:47.461Z,13.40
2023-03-20T07:56:50.036Z,13.40
2023-03-20T08:00:51.323Z,13.30
2023-03-20T08:04:52.473Z,13.40
2023-03-20T08:08:54.154Z,13.40
2023-03-20T08:12:55.498Z,13.30
2023-03-20T08:17:13.314Z,13.30
2023-03-20T08:21:01.013Z,13.70
2023-03-20T08:25:02.474Z,13.60
2023-03-20T08:29:03.850Z,13.30
2023-03-20T08:33:05.022Z,13.40
2023-03-20T08:37:07.261Z,13.40
2023-03-20T08:41:08.434Z,13.40
2023-03-20T08:45:10.949Z,13.50
2023-03-20T08:49:12.017Z,13.60
2023-03-20T08:53:13.158Z,13.50
2023-03-20T08:57:14.312Z,13.50
2023-03-20T09:01:15.841Z,13.50
2023-03-20T09:05:17.099Z,13.40
2023-03-20T09:09:20.148Z,13.40
2023-03-20T09:13:27.157Z,13.40
2023-03-20T09:17:25.506Z,13.40
2023-03-20T09:21:26.802Z,13.40
2023-03-20T09:25:28.221Z,13.40
2023-03-20T09:29:29.680Z,13.40
2023-03-20T09:33:30.960Z,13.40
2023-03-20T09:37:32.097Z,13.50
2023-03-20T09:41:45.557Z,13.50
2023-03-20T09:45:48.353Z,13.60
2023-03-20T09:50:08.634Z,13.60
2023-03-20T09:54:16.718Z,13.70
2023-03-20T09:58:24.991Z,13.70
2023-03-20T10:02:48.677Z,13.60
2023-03-20T10:06:49.923Z,13.50
2023-03-20T10:11:15.908Z,13.70
2023-03-20T10:15:36.341Z,13.60
2023-03-20T10:19:44.203Z,13.80
2023-03-20T10:23:58.488Z,14.10
2023-03-20T10:28:03.581Z,14.80
2023-03-20T10:32:08.599Z,15.50
2023-03-20T10:36:35.310Z,16.20
2023-03-20T10:40:40.460Z,16.90
2023-03-20T10:44:45.632Z,17.60
2023-03-20T10:48:53.685Z,17.90
2023-03-20T10:52:56.350Z,18.20
2023-03-20T10:56:59.988Z,17.80
2023-03-20T11:01:02.521Z,17.60
2023-03-20T11:05:10.662Z,17.30
2023-03-20T11:09:21.523Z,17.30
2023-03-20T11:13:32.504Z,17.30
2023-03-20T11:17:33.680Z,17.20
2023-03-20T11:21:38.449Z,16.90
2023-03-20T11:25:48.980Z,16.80
2023-03-20T11:29:51.501Z,16.80
2023-03-20T11:34:02.236Z,16.50
2023-03-20T11:38:16.385Z,16.40
2023-03-20T11:42:26.304Z,16.30
2023-03-20T11:46:27.450Z,16.40
2023-03-20T11:50:44.046Z,16.30
2023-03-20T11:54:51.928Z,16.30
2023-03-20T11:59:02.868Z,16.30
2023-03-20T12:03:24.368Z,16.60
2023-03-20T12:07:32.231Z,16.60
2023-03-20T12:11:55.608Z,17.00
2023-03-20T12:16:00.885Z,17.30
2023-03-20T12:20:10.592Z,17.20
2023-03-20T12:24:31.124Z,17.70
2023-03-20T12:28:57.662Z,17.70
2023-03-20T12:33:23.632Z,17.60
2023-03-20T12:37:25.297Z,17.30
2023-03-20T12:41:30.620Z,17.50
2023-03-20T12:45:44.699Z,17.60
2023-03-20T12:50:05.469Z,17.60
2023-03-20T12:54:25.894Z,17.40
2023-03-20T12:58:40.032Z,17.30
2023-03-20T13:02:45.665Z,17.40
2023-03-20T13:07:01.581Z,17.40
2023-03-20T13:11:21.303Z,17.20
2023-03-20T13:15:49.515Z,17.10
2023-03-20T13:20:17.571Z,17.00
2023-03-20T13:24:31.354Z,17.00
2023-03-20T13:28:54.230Z,17.10
2023-03-20T13:33:10.931Z,16.90
2023-03-20T13:37:37.583Z,16.90
2023-03-20T13:41:38.848Z,16.60
2023-03-20T13:45:42.256Z,16.40
2023-03-20T13:49:47.308Z,16.50
2023-03-20T13:54:04.792Z,16.30
2023-03-20T13:58:15.981Z,16.10
2023-03-20T14:02:38.721Z,16.00
2023-03-20T14:06:49.770Z,16.20
2023-03-20T14:11:00.788Z,16.30
2023-03-20T14:15:03.363Z,16.30
2023-03-20T14:19:17.190Z,16.40
2023-03-20T14:23:22.230Z,16.30
2023-03-20T14:27:42.728Z,16.30
2023-03-20T14:31:34.754Z,16.60
2023-03-20T14:35:37.864Z,16.50
2023-03-20T14:39:42.810Z,16.20
2023-03-20T14:43:55.867Z,16.20
2023-03-20T14:48:26.913Z,16.30
2023-03-20T14:52:46.846Z,16.20
2023-03-20T14:56:49.414Z,16.30
2023-03-20T15:00:50.683Z,16.30
2023-03-20T15:04:52.364Z,16.20
2023-03-20T15:09:00.231Z,16.00
2023-03-20T15:13:04.313Z,16.20
2023-03-20T15:17:08.332Z,16.10
2023-03-20T15:21:16.306Z,16.10
2023-03-20T15:25:19.904Z,15.90
2023-03-20T15:29:21.881Z,16.00
2023-03-20T15:33:30.078Z,16.10
2023-03-20T15:37:33.213Z,16.00
2023-03-20T15:41:37.572Z,16.00
2023-03-20T15:45:41.964Z,15.90
2023-03-20T15:49:46.943Z,15.90
2023-03-20T15:53:48.554Z,15.70
2023-03-20T15:57:53.083Z,15.50
2023-03-20T16:01:57.793Z,15.40
2023-03-20T16:06:00.739Z,15.10
2023-03-20T16:10:01.928Z,15.20
2023-03-20T16:14:04.467Z,15.10
2023-03-20T16:18:06.649Z,15.00
2023-03-20T16:22:11.631Z,15.00
2023-03-20T16:26:16.418Z,15.00
2023-03-20T16:30:21.194Z,14.90
2023-03-20T16:34:26.250Z,14.90
2023-03-20T16:38:31.139Z,14.90
2023-03-20T16:42:32.706Z,14.80
2023-03-20T16:46:33.992Z,14.60
2023-03-20T16:50:38.444Z,14.60
2023-03-20T16:54:39.877Z,14.60
2023-03-20T16:58:44.661Z,14.80
2023-03-20T17:02:49.922Z,15.00
2023-03-20T17:06:57.248Z,14.90
2023-03-20T17:11:01.121Z,14.70
2023-03-20T17:15:02.701Z,14.60
2023-03-20T17:19:16.407Z,14.50
2023-03-20T17:23:21.030Z,14.40
2023-03-20T17:27:22.810Z,14.30
2023-03-20T17:31:23.987Z,14.20
2023-03-20T17:35:25.101Z,14.00
2023-03-20T17:39:26.250Z,13.80
2023-03-20T17:43:27.295Z,13.90
2023-03-20T17:47:29.380Z,13.90
2023-03-20T17:51:30.726Z,13.70
2023-03-20T17:55:31.872Z,13.60
2023-03-20T17:59:32.953Z,13.90
2023-03-20T18:03:35.714Z,13.70
2023-03-20T18:07:37.656Z,13.70
2023-03-20T18:11:38.816Z,13.70
2023-03-20T18:15:40.329Z,13.70
2023-03-20T18:19:42.727Z,13.80
2023-03-20T18:23:45.009Z,13.70
2023-03-20T18:27:46.170Z,13.50
2023-03-20T18:31:48.609Z,13.40
2023-03-20T18:35:50.067Z,13.30
2023-03-20T18:39:51.213Z,13.40
2023-03-20T18:43:54.250Z,13.40
2023-03-20T18:47:56.531Z,13.50
2023-03-20T18:51:57.690Z,13.50
2023-03-20T18:56:00.063Z,13.50
2023-03-20T19:00:01.316Z,13.40
2023-03-20T19:04:02.612Z,13.40
2023-03-20T19:08:04.737Z,13.30
2023-03-20T19:12:06.181Z,13.20
2023-03-20T19:16:11.589Z,13.20
2023-03-20T19:20:33.180Z,13.40
2023-03-20T19:24:34.369Z,13.60
2023-03-20T19:28:40.716Z,13.40
2023-03-20T19:32:38.513Z,13.20
2023-03-20T19:36:41.602Z,13.20
2023-03-20T19:40:46.071Z,13.10
2023-03-20T19:44:47.281Z,13.20
2023-03-20T19:48:51.212Z,13.10
2023-03-20T19:52:52.176Z,13.20
2023-03-20T19:56:53.341Z,13.10
2023-03-20T20:00:58.470Z,13.10
2023-03-20T20:04:58.440Z,13.10
2023-03-20T20:09:00.724Z,13.10
2023-03-20T20:13:03.711Z,13.10
2023-03-20T20:17:05.344Z,13.10
2023-03-20T20:22:02.169Z,13.00
2023-03-20T20:25:11.788Z,13.10
2023-03-20T20:29:12.992Z,13.00
2023-03-20T20:33:17.157Z,12.90
2023-03-20T20:41:24.224Z,13.00
2023-03-20T20:45:29.231Z,13.00
2023-03-20T20:49:30.352Z,13.00
2023-03-20T20:53:31.730Z,13.00
2023-03-20T20:57:32.897Z,13.10
2023-03-20T21:01:34.245Z,13.00
2023-03-20T21:05:37.096Z,13.00
2023-03-20T21:09:39.728Z,13.00
2023-03-20T21:13:40.938Z,13.00
2023-03-20T21:17:50.407Z,12.90
2023-03-20T21:21:45.438Z,13.00
2023-03-20T21:25:48.070Z,12.90
2023-03-20T21:29:49.906Z,12.90
2023-03-20T21:33:52.891Z,12.90
2023-03-20T21:41:57.706Z,13.00
2023-03-20T21:46:40.181Z,12.90
2023-03-20T21:54:56.787Z,12.90
2023-03-20T21:58:51.079Z,12.80
2023-03-20T22:02:21.384Z,12.90
2023-03-20T22:15:11.844Z,12.90
2023-03-20T22:39:31.632Z,12.80
2023-03-20T22:43:01.498Z,12.90
2023-03-20T22:46:51.233Z,12.90
2023-03-20T22:50:52.417Z,12.90
2023-03-20T22:54:53.570Z,12.90
2023-03-20T22:58:54.776Z,12.90
2023-03-20T23:03:06.722Z,12.80
2023-03-20T23:07:00.836Z,12.80
2023-03-20T23:11:07.531Z,12.80
2023-03-20T23:15:08.984Z,12.80
2023-03-20T23:19:11.161Z,12.70
2023-03-20T23:23:12.219Z,12.60
2023-03-20T23:27:13.370Z,12.60
2023-03-20T23:31:20.993Z,12.80
2023-03-20T23:35:22.095Z,12.80
2023-03-20T23:39:23.254Z,12.80
2023-03-20T23:43:24.706Z,12.70
2023-03-20T23:47:29.846Z,12.80
2023-03-20T23:51:28.822Z,12.70
2023-03-20T23:55:30.075Z,12.70
2023-03-20T23:59:31.447Z,12.70
